Empeyville, New York
Current Conditions -  °F | °C
As of 8:53 AM on Friday 24 Oct 2014 (Local Time) from KRME Reporting Station
Overcast Overcast  
Wind Chill: 44°   Ceiling: 1900
Heat Index: 47°   Visibility: 10mi
Dew Point: 43°   Wind: 7mph
Humidity: 86%   Direction: 270°W
Pressure: 29.94"   Gusts: NA
Location:  43.3736°N, 75.7544°W
Report Text: KRME 241253Z 27006KT 10SM OVC019 08/06 A2994 RMK AO2 SLP138 T00830061
Loading
Personal Weather Stations






























Interactive Weather Map
Tropical Storm Tracking
New forecast layout! Learn more

10-Day Weather Forecast

Advertisements
Track Severe Weather on mobile